createdAt,value
2019-01-17T00:01:45.547Z,953.6
2019-01-17T00:11:48.963Z,953.8
2019-01-17T00:21:52.369Z,953.9
2019-01-17T00:31:55.791Z,954.1
2019-01-17T00:41:59.228Z,954.1
2019-01-17T00:52:02.640Z,954.1
2019-01-17T01:02:06.034Z,953.8
2019-01-17T01:12:09.443Z,953.8
2019-01-17T01:22:12.842Z,953.9
2019-01-17T01:32:16.296Z,953.8
2019-01-17T01:42:19.690Z,953.8
2019-01-17T01:52:23.107Z,953.8
2019-01-17T02:02:26.554Z,953.9
2019-01-17T02:12:29.978Z,953.9
2019-01-17T02:22:33.410Z,953.6
2019-01-17T02:32:36.854Z,953.7
2019-01-17T02:42:40.287Z,953.6
2019-01-17T02:52:43.695Z,953.7
2019-01-17T03:02:47.114Z,953.6
2019-01-17T03:12:50.506Z,953.6
2019-01-17T03:22:53.945Z,953.4
2019-01-17T03:32:57.389Z,953.3
2019-01-17T03:43:00.841Z,953.1
2019-01-17T03:53:04.241Z,953
2019-01-17T04:03:07.647Z,953.2
2019-01-17T04:13:11.091Z,953.3
2019-01-17T04:23:14.493Z,953
2019-01-17T04:33:17.902Z,953
2019-01-17T04:43:21.302Z,952.9
2019-01-17T04:53:24.728Z,952.6
2019-01-17T05:03:28.168Z,952.8
2019-01-17T05:13:31.597Z,952.7
2019-01-17T05:23:35.030Z,953.1
2019-01-17T05:33:38.491Z,952.7
2019-01-17T05:43:41.895Z,952.7
2019-01-17T05:53:45.283Z,952.5
2019-01-17T06:03:48.668Z,952.4
2019-01-17T06:13:52.067Z,952.1
2019-01-17T06:23:55.486Z,951.8
2019-01-17T06:33:58.911Z,951.3
2019-01-17T06:44:02.382Z,951.4
2019-01-17T06:54:05.808Z,951.1
2019-01-17T07:04:09.230Z,958.2
2019-01-17T07:14:12.661Z,958
2019-01-17T07:24:16.082Z,958
2019-01-17T07:34:19.502Z,958.1
2019-01-17T07:44:23.929Z,958
2019-01-17T07:54:27.335Z,958
2019-01-17T08:04:30.751Z,957.5
2019-01-17T08:14:34.168Z,957.5
2019-01-17T08:24:37.583Z,957.4
2019-01-17T08:34:40.967Z,957.2
2019-01-17T08:44:44.365Z,957
2019-01-17T08:54:47.799Z,956.6
2019-01-17T09:04:51.238Z,956.2
2019-01-17T09:14:54.630Z,956.5
2019-01-17T09:24:58.043Z,956.2
2019-01-17T09:35:01.442Z,955.8
2019-01-17T09:45:04.874Z,956
2019-01-17T09:55:08.289Z,956.4
2019-01-17T10:05:11.692Z,956
2019-01-17T10:15:15.115Z,956.5
2019-01-17T10:25:18.508Z,956.2
2019-01-17T10:35:21.956Z,957.2
2019-01-17T10:45:25.359Z,957.3
2019-01-17T10:55:28.768Z,956.5
2019-01-17T11:05:32.174Z,956
2019-01-17T11:15:35.618Z,956.5
2019-01-17T11:25:39.100Z,955.9
2019-01-17T11:35:42.544Z,956.3
2019-01-17T11:45:46.009Z,956.2
2019-01-17T11:55:49.441Z,956
2019-01-17T12:05:52.849Z,956.4
2019-01-17T12:15:56.254Z,956
2019-01-17T12:25:59.697Z,956
2019-01-17T12:36:03.120Z,956.5
2019-01-17T12:46:06.600Z,956.7
2019-01-17T12:56:09.996Z,956.3
2019-01-17T13:06:13.449Z,956.2
2019-01-17T13:16:16.870Z,956.4
2019-01-17T13:26:20.301Z,956.6
2019-01-17T13:36:23.733Z,956.6
2019-01-17T13:46:27.163Z,956.4
2019-01-17T13:56:30.582Z,956.6
2019-01-17T14:06:33.986Z,956.7
2019-01-17T14:16:37.419Z,957.1
2019-01-17T14:26:40.863Z,957.5
2019-01-17T14:36:44.275Z,957.9
2019-01-17T14:46:47.700Z,957.7
2019-01-17T14:56:51.104Z,957.6
2019-01-17T15:06:54.522Z,958.4
2019-01-17T15:16:57.955Z,957.8
2019-01-17T15:27:01.377Z,958.1
2019-01-17T15:37:04.787Z,957.4
2019-01-17T15:47:13.567Z,957.3
2019-01-17T15:57:16.978Z,957.1
2019-01-17T16:07:20.400Z,957.6
2019-01-17T16:17:23.833Z,959.9
2019-01-17T16:27:27.311Z,959.4
2019-01-17T16:37:30.735Z,959.5
2019-01-17T16:47:34.135Z,960
2019-01-17T16:57:37.567Z,960.4
2019-01-17T17:07:41.027Z,960.3
2019-01-17T17:17:44.443Z,960.8
2019-01-17T17:27:47.853Z,960.3
2019-01-17T17:37:51.289Z,961.2
2019-01-17T17:47:54.747Z,960.6
2019-01-17T17:58:02.701Z,960.8
2019-01-17T18:08:06.097Z,960.3
2019-01-17T18:18:09.493Z,960.8
2019-01-17T18:28:12.898Z,960.9
2019-01-17T18:38:16.318Z,960.7
2019-01-17T18:48:19.730Z,961.4
2019-01-17T18:58:23.173Z,961
2019-01-17T19:08:28.598Z,954.6
2019-01-17T19:18:32.014Z,961.3
2019-01-17T19:28:35.431Z,962.1
2019-01-17T19:38:38.851Z,961.8
2019-01-17T19:48:42.272Z,962.1
2019-01-17T20:08:54.032Z,962.5
2019-01-17T20:18:57.441Z,962.4
2019-01-17T20:29:00.864Z,962.6
2019-01-17T20:39:05.304Z,962.4
2019-01-17T20:49:08.741Z,962.5
2019-01-17T20:59:12.142Z,962.4
2019-01-17T21:09:15.536Z,963
2019-01-17T21:19:18.957Z,955.6
2019-01-17T21:29:22.382Z,963
2019-01-17T21:39:25.825Z,956.3
2019-01-17T21:49:29.241Z,955.9
2019-01-17T21:59:32.679Z,962.8
2019-01-17T22:09:36.096Z,962.4
2019-01-17T22:19:39.512Z,962.4
2019-01-17T22:29:42.968Z,962.9
2019-01-17T22:39:46.430Z,962.1
2019-01-17T22:49:49.862Z,962.1
2019-01-17T22:59:53.337Z,961.9
2019-01-17T23:09:56.779Z,962.6
2019-01-17T23:20:00.283Z,962.5
2019-01-17T23:30:03.692Z,963.3
2019-01-17T23:40:07.129Z,964.2
2019-01-17T23:50:10.576Z,963.7
